createdAt,value
2023-05-10T00:01:36.659Z,25.05
2023-05-10T00:04:49.035Z,21.95
2023-05-10T00:08:01.079Z,21.00
2023-05-10T00:11:13.305Z,20.03
2023-05-10T00:14:26.081Z,21.73
2023-05-10T00:17:38.326Z,17.33
2023-05-10T00:20:50.865Z,20.40
2023-05-10T00:24:03.179Z,20.48
2023-05-10T00:27:15.754Z,22.00
2023-05-10T00:30:29.240Z,16.78
2023-05-10T00:33:41.556Z,23.45
2023-05-10T00:36:54.939Z,21.23
2023-05-10T00:40:07.059Z,20.88
2023-05-10T00:43:19.545Z,18.35
2023-05-10T00:46:34.020Z,16.25
2023-05-10T00:49:47.348Z,23.88
2023-05-10T00:52:59.506Z,21.15
2023-05-10T00:56:12.367Z,17.98
2023-05-10T00:59:25.403Z,18.63
2023-05-10T01:02:38.024Z,14.83
2023-05-10T01:05:50.324Z,19.13
2023-05-10T01:09:04.663Z,14.18
2023-05-10T01:12:17.115Z,18.13
2023-05-10T01:15:29.662Z,20.38
2023-05-10T01:18:44.995Z,13.28
2023-05-10T01:22:08.657Z,20.28
2023-05-10T01:26:07.560Z,14.13
2023-05-10T01:29:49.019Z,22.20
2023-05-10T01:33:06.592Z,18.23
2023-05-10T01:36:27.243Z,20.40
2023-05-10T01:39:45.052Z,12.88
2023-05-10T01:43:03.838Z,17.05
2023-05-10T01:46:22.063Z,13.38
2023-05-10T01:49:37.903Z,15.43
2023-05-10T01:52:55.773Z,14.50
2023-05-10T01:56:09.924Z,17.00
2023-05-10T01:59:26.536Z,14.35
2023-05-10T02:02:43.532Z,12.50
2023-05-10T02:05:57.990Z,14.55
2023-05-10T02:09:12.058Z,17.45
2023-05-10T02:12:25.291Z,19.10
2023-05-10T02:15:39.742Z,16.68
2023-05-10T02:18:53.293Z,20.48
2023-05-10T02:22:06.604Z,15.60
2023-05-10T02:25:21.323Z,15.53
2023-05-10T02:28:35.228Z,17.38
2023-05-10T02:31:48.797Z,23.13
2023-05-10T02:35:01.813Z,21.15
2023-05-10T02:38:14.749Z,16.78
2023-05-10T02:41:28.215Z,25.70
2023-05-10T02:44:42.789Z,20.52
2023-05-10T02:47:55.672Z,18.58
2023-05-10T02:51:12.714Z,17.63
2023-05-10T02:54:29.846Z,17.18
2023-05-10T02:57:46.718Z,27.20
2023-05-10T03:00:59.019Z,14.70
2023-05-10T03:04:11.801Z,16.68
2023-05-10T03:07:24.609Z,20.73
2023-05-10T03:10:39.385Z,14.10
2023-05-10T03:13:59.516Z,16.88
2023-05-10T03:17:17.255Z,17.83
2023-05-10T03:20:37.139Z,16.55
2023-05-10T03:23:56.410Z,18.85
2023-05-10T03:27:09.549Z,18.03
2023-05-10T03:30:23.455Z,18.23
2023-05-10T03:33:36.059Z,13.63
2023-05-10T03:36:48.513Z,21.35
2023-05-10T03:40:00.972Z,26.05
2023-05-10T03:43:14.662Z,16.10
2023-05-10T03:46:27.723Z,22.48
2023-05-10T03:49:40.100Z,16.25
2023-05-10T03:52:54.114Z,14.13
2023-05-10T03:56:06.760Z,12.53
2023-05-10T03:59:19.380Z,14.63
2023-05-10T04:02:32.044Z,13.88
2023-05-10T04:05:46.306Z,11.93
2023-05-10T04:09:00.828Z,12.98
2023-05-10T04:12:13.965Z,15.05
2023-05-10T04:15:26.618Z,12.73
2023-05-10T04:18:38.729Z,14.18
2023-05-10T04:21:51.154Z,13.35
2023-05-10T04:25:03.388Z,13.10
2023-05-10T04:28:15.405Z,15.50
2023-05-10T04:31:28.160Z,14.73
2023-05-10T04:34:40.724Z,14.78
2023-05-10T04:37:52.690Z,17.40
2023-05-10T04:41:14.583Z,13.70
2023-05-10T04:44:26.771Z,18.38
2023-05-10T04:47:39.018Z,17.55
2023-05-10T04:50:51.231Z,12.83
2023-05-10T04:54:06.656Z,15.75
2023-05-10T04:57:17.566Z,15.85
2023-05-10T05:00:30.174Z,11.48
2023-05-10T05:03:43.717Z,15.78
2023-05-10T05:06:56.600Z,9.25
2023-05-10T05:10:09.035Z,14.33
2023-05-10T05:13:24.633Z,15.35
2023-05-10T05:16:39.129Z,14.13
2023-05-10T05:19:51.837Z,10.93
2023-05-10T05:23:04.002Z,13.78
2023-05-10T05:26:16.165Z,16.05
2023-05-10T05:29:28.299Z,11.05
2023-05-10T05:32:40.502Z,10.30
2023-05-10T05:35:53.027Z,18.50
2023-05-10T05:39:05.361Z,13.35
2023-05-10T05:42:19.960Z,12.38
2023-05-10T05:45:32.587Z,17.78
2023-05-10T05:48:45.064Z,48.85
2023-05-10T05:51:57.326Z,73.98
2023-05-10T05:55:10.784Z,84.05
2023-05-10T05:58:22.956Z,17.70
2023-05-10T06:01:35.233Z,78.15
2023-05-10T06:04:47.699Z,67.55
2023-05-10T06:08:00.131Z,16.93
2023-05-10T06:11:12.540Z,44.55
2023-05-10T06:14:25.559Z,15.28
2023-05-10T06:17:37.862Z,12.20
2023-05-10T06:20:51.592Z,13.28
2023-05-10T06:24:04.325Z,31.38
2023-05-10T06:27:17.520Z,13.83
2023-05-10T06:30:30.608Z,11.23
2023-05-10T06:33:42.980Z,10.30
2023-05-10T06:36:55.493Z,10.00
2023-05-10T06:40:08.006Z,10.85
2023-05-10T06:43:20.145Z,9.03
2023-05-10T06:46:32.332Z,11.95
2023-05-10T06:49:44.768Z,10.45
2023-05-10T06:52:57.014Z,16.23
2023-05-10T06:56:10.077Z,13.58
2023-05-10T06:59:22.945Z,8.83
2023-05-10T07:02:35.357Z,18.18
2023-05-10T07:05:47.924Z,13.15
2023-05-10T07:09:00.389Z,8.75
2023-05-10T07:12:15.435Z,11.23
2023-05-10T07:15:29.359Z,9.98
2023-05-10T07:18:41.810Z,14.50
2023-05-10T07:21:54.175Z,22.23
2023-05-10T07:25:06.800Z,23.70
2023-05-10T07:28:19.483Z,10.30
2023-05-10T07:31:32.383Z,10.88
2023-05-10T07:34:45.586Z,8.30
2023-05-10T07:37:58.852Z,6.85
2023-05-10T07:41:12.288Z,7.08
2023-05-10T07:44:24.762Z,11.48
2023-05-10T07:47:36.863Z,11.48
2023-05-10T07:50:49.001Z,47.15
2023-05-10T07:54:01.447Z,56.43
2023-05-10T07:57:12.588Z,14.63
2023-05-10T08:00:28.080Z,7.83
2023-05-10T08:03:40.328Z,8.98
2023-05-10T08:06:52.605Z,9.28
2023-05-10T08:10:04.759Z,7.33
2023-05-10T08:13:16.882Z,8.98
2023-05-10T08:16:30.204Z,6.35
2023-05-10T08:19:42.601Z,3.48
2023-05-10T08:22:55.234Z,6.93
2023-05-10T08:26:07.822Z,3.90
2023-05-10T08:29:20.440Z,8.73
2023-05-10T08:32:32.897Z,49.95
2023-05-10T08:35:48.326Z,3.50
2023-05-10T08:39:01.220Z,3.93
2023-05-10T08:42:16.338Z,5.48
2023-05-10T08:45:30.290Z,5.10
2023-05-10T08:48:44.850Z,6.58
2023-05-10T08:52:01.442Z,9.70
2023-05-10T08:58:24.651Z,8.78
2023-05-10T09:01:38.573Z,25.58
2023-05-10T09:04:50.880Z,7.58
2023-05-10T09:08:03.813Z,8.50
2023-05-10T09:11:16.810Z,3.10
2023-05-10T09:14:30.516Z,4.68
2023-05-10T09:17:43.621Z,2.83
2023-05-10T09:20:56.121Z,5.40
2023-05-10T09:24:13.022Z,2.80
2023-05-10T09:27:33.245Z,6.60
2023-05-10T09:30:45.575Z,4.98
2023-05-10T09:33:58.831Z,10.65
2023-05-10T09:37:11.896Z,7.25
2023-05-10T09:40:26.062Z,3.43
2023-05-10T09:43:47.494Z,4.55
2023-05-10T09:47:00.200Z,3.13
2023-05-10T09:50:14.732Z,5.03
2023-05-10T09:53:26.697Z,2.80
2023-05-10T09:56:45.570Z,6.28
2023-05-10T09:59:59.584Z,3.18
2023-05-10T10:03:13.233Z,4.03
2023-05-10T10:06:30.561Z,3.65
2023-05-10T10:09:43.725Z,13.00
2023-05-10T10:12:55.974Z,5.28
2023-05-10T10:16:09.988Z,2.98
2023-05-10T10:19:22.340Z,3.15
2023-05-10T10:22:34.484Z,2.80
2023-05-10T10:25:49.031Z,6.68
2023-05-10T10:29:10.582Z,2.63
2023-05-10T10:32:31.860Z,6.23
2023-05-10T10:35:45.249Z,5.93
2023-05-10T10:39:13.940Z,6.43
2023-05-10T10:42:52.632Z,3.68
2023-05-10T10:46:24.479Z,6.40
2023-05-10T10:49:38.101Z,5.78
2023-05-10T10:52:51.669Z,5.13
2023-05-10T10:56:17.573Z,5.20
2023-05-10T10:59:37.655Z,4.45
2023-05-10T11:02:57.932Z,2.45
2023-05-10T11:06:10.576Z,12.13
2023-05-10T11:09:23.003Z,12.20
2023-05-10T11:12:36.704Z,3.35
2023-05-10T11:15:53.556Z,3.65
2023-05-10T11:19:12.393Z,4.35
2023-05-10T11:22:24.918Z,4.80
2023-05-10T11:25:37.250Z,4.55
2023-05-10T11:28:52.916Z,3.03
2023-05-10T11:32:09.427Z,5.73
2023-05-10T11:38:33.947Z,3.60
2023-05-10T11:41:46.661Z,4.08
2023-05-10T11:44:59.040Z,3.45
2023-05-10T11:48:11.928Z,4.28
2023-05-10T11:51:27.393Z,2.98
2023-05-10T11:54:40.128Z,7.70
2023-05-10T11:57:52.848Z,2.85
2023-05-10T12:01:05.799Z,5.00
2023-05-10T12:04:18.269Z,4.20
2023-05-10T12:07:31.020Z,3.23
2023-05-10T12:10:43.730Z,5.95
2023-05-10T12:13:56.242Z,8.78
2023-05-10T12:17:08.550Z,3.35
2023-05-10T12:20:26.312Z,3.65
2023-05-10T12:23:39.026Z,3.60
2023-05-10T12:27:07.896Z,6.75
2023-05-10T12:30:27.560Z,3.75
2023-05-10T12:33:47.741Z,3.33
2023-05-10T12:37:01.036Z,3.13
2023-05-10T12:40:17.022Z,3.88
2023-05-10T12:43:30.025Z,6.30
2023-05-10T12:46:42.284Z,3.33
2023-05-10T12:49:54.432Z,5.90
2023-05-10T12:53:06.764Z,2.20
2023-05-10T12:56:19.026Z,6.10
2023-05-10T12:59:31.364Z,5.38
2023-05-10T13:02:44.246Z,3.23
2023-05-10T13:05:56.930Z,3.43
2023-05-10T13:09:12.193Z,2.95
2023-05-10T13:12:24.680Z,4.55
2023-05-10T13:15:37.381Z,5.23
2023-05-10T13:18:49.949Z,3.83
2023-05-10T13:22:03.638Z,3.10
2023-05-10T13:25:17.728Z,4.30
2023-05-10T13:28:31.423Z,6.65
2023-05-10T13:31:44.788Z,7.05
2023-05-10T13:35:00.161Z,3.90
2023-05-10T13:38:14.920Z,9.05
2023-05-10T13:41:27.795Z,4.80
2023-05-10T13:44:40.471Z,7.38
2023-05-10T13:47:53.349Z,9.83
2023-05-10T13:51:06.075Z,3.08
2023-05-10T13:54:20.775Z,3.85
2023-05-10T13:57:37.058Z,5.70
2023-05-10T14:00:50.311Z,4.53
2023-05-10T14:04:03.261Z,7.20
2023-05-10T14:07:16.009Z,2.73
2023-05-10T14:10:28.617Z,6.13
2023-05-10T14:13:41.477Z,4.75
2023-05-10T14:16:54.331Z,34.58
2023-05-10T14:20:07.531Z,3.73
2023-05-10T14:23:23.197Z,4.95
2023-05-10T14:26:35.954Z,3.70
2023-05-10T14:29:48.865Z,3.63
2023-05-10T14:33:02.413Z,5.90
2023-05-10T14:36:17.085Z,3.75
2023-05-10T14:39:30.834Z,5.30
2023-05-10T14:42:44.545Z,3.93
2023-05-10T14:45:58.124Z,3.25
2023-05-10T14:49:11.844Z,5.83
2023-05-10T14:52:24.778Z,4.00
2023-05-10T14:55:38.206Z,6.65
2023-05-10T14:58:51.023Z,2.38
2023-05-10T15:02:04.540Z,3.75
2023-05-10T15:05:19.211Z,3.70
2023-05-10T15:08:32.247Z,3.28
2023-05-10T15:11:45.701Z,7.18
2023-05-10T15:14:58.072Z,6.25
2023-05-10T15:18:13.910Z,3.55
2023-05-10T15:21:26.871Z,3.17
2023-05-10T15:24:39.634Z,4.03
2023-05-10T15:27:53.656Z,2.58
2023-05-10T15:31:06.991Z,5.40
2023-05-10T15:34:24.621Z,5.98
2023-05-10T15:37:37.470Z,5.70
2023-05-10T15:40:50.163Z,4.28
2023-05-10T15:44:03.129Z,3.43
2023-05-10T15:47:15.668Z,6.50
2023-05-10T15:50:28.751Z,2.33
2023-05-10T15:53:56.444Z,4.68
2023-05-10T15:57:00.291Z,5.98
2023-05-10T16:00:17.052Z,3.20
2023-05-10T16:03:32.985Z,4.08
2023-05-10T16:06:50.976Z,5.23
2023-05-10T16:10:04.544Z,2.48
2023-05-10T16:13:22.791Z,6.28
2023-05-10T16:16:39.964Z,3.93
2023-05-10T16:19:53.757Z,2.68
2023-05-10T16:23:09.928Z,5.80
2023-05-10T16:26:26.020Z,5.07
2023-05-10T16:29:39.521Z,4.05
2023-05-10T16:32:52.546Z,7.95
2023-05-10T16:36:06.584Z,6.10
2023-05-10T16:39:19.484Z,3.75
2023-05-10T16:42:32.482Z,5.28
2023-05-10T16:45:45.187Z,6.00
2023-05-10T16:49:00.016Z,4.05
2023-05-10T16:52:13.109Z,4.15
2023-05-10T16:55:26.624Z,6.00
2023-05-10T16:58:40.311Z,4.45
2023-05-10T17:01:53.537Z,6.58
2023-05-10T17:05:10.289Z,4.08
2023-05-10T17:08:26.379Z,5.48
2023-05-10T17:11:43.492Z,4.20
2023-05-10T17:14:57.083Z,4.40
2023-05-10T17:18:11.915Z,4.48
2023-05-10T17:21:28.330Z,6.40
2023-05-10T17:24:45.484Z,6.73
2023-05-10T17:27:58.609Z,5.98
2023-05-10T17:31:12.027Z,4.08
2023-05-10T17:34:25.963Z,19.75
2023-05-10T17:37:40.035Z,30.28
2023-05-10T17:40:52.963Z,8.28
2023-05-10T17:44:06.218Z,8.10
2023-05-10T17:47:19.267Z,5.63
2023-05-10T17:50:35.778Z,6.50
2023-05-10T17:57:05.767Z,10.50
2023-05-10T18:00:26.500Z,10.08
2023-05-10T18:03:39.711Z,7.65
2023-05-10T18:06:55.468Z,4.20
2023-05-10T18:10:12.833Z,10.90
2023-05-10T18:13:25.824Z,6.73
2023-05-10T18:16:38.436Z,7.95
2023-05-10T18:19:54.287Z,10.30
2023-05-10T18:23:07.371Z,76.38
2023-05-10T18:26:20.372Z,66.53
2023-05-10T18:29:37.517Z,11.30
2023-05-10T18:32:50.843Z,10.80
2023-05-10T18:36:05.243Z,4.60
2023-05-10T18:39:21.298Z,10.45
2023-05-10T18:42:43.045Z,6.18
2023-05-10T18:45:59.165Z,10.73
2023-05-10T18:49:12.284Z,10.20
2023-05-10T18:52:41.326Z,8.78
2023-05-10T18:56:04.201Z,8.78
2023-05-10T18:59:18.467Z,8.10
2023-05-10T19:02:31.502Z,10.08
2023-05-10T19:05:44.642Z,10.50
2023-05-10T19:09:06.560Z,11.63
2023-05-10T19:12:26.198Z,8.78
2023-05-10T19:15:44.272Z,8.53
2023-05-10T19:19:03.042Z,13.65
2023-05-10T19:22:16.202Z,12.88
2023-05-10T19:25:31.211Z,13.50
2023-05-10T19:28:44.924Z,8.83
2023-05-10T19:31:58.732Z,12.43
2023-05-10T19:35:14.882Z,11.05
2023-05-10T19:38:29.921Z,31.70
2023-05-10T19:41:42.491Z,13.35
2023-05-10T19:44:57.560Z,15.10
2023-05-10T19:48:11.604Z,11.38
2023-05-10T19:51:24.269Z,15.73
2023-05-10T19:54:36.430Z,15.05
2023-05-10T19:57:48.615Z,16.85
2023-05-10T20:01:01.136Z,23.80
2023-05-10T20:04:13.453Z,16.83
2023-05-10T20:07:25.933Z,17.90
2023-05-10T20:10:38.390Z,23.25
2023-05-10T20:13:50.986Z,22.83
2023-05-10T20:17:06.389Z,26.15
2023-05-10T20:20:21.432Z,19.83
2023-05-10T20:23:33.658Z,13.30
2023-05-10T20:26:46.625Z,14.90
2023-05-10T20:29:59.255Z,11.78
2023-05-10T20:33:12.612Z,12.70
2023-05-10T20:36:25.607Z,13.83
2023-05-10T20:39:37.744Z,8.65
2023-05-10T20:42:52.219Z,9.60
2023-05-10T20:46:05.636Z,10.05
2023-05-10T20:49:18.298Z,8.78
2023-05-10T20:52:30.655Z,13.95
2023-05-10T20:55:43.066Z,15.65
2023-05-10T20:58:55.054Z,17.73
2023-05-10T21:02:07.080Z,18.50
2023-05-10T21:05:19.536Z,11.50
2023-05-10T21:08:31.993Z,16.18
2023-05-10T21:11:44.518Z,13.98
2023-05-10T21:14:56.890Z,14.93
2023-05-10T21:18:09.902Z,16.28
2023-05-10T21:21:22.325Z,13.00
2023-05-10T21:24:35.381Z,14.98
2023-05-10T21:27:47.392Z,14.53
2023-05-10T21:30:59.670Z,11.43
2023-05-10T21:34:14.147Z,17.75
2023-05-10T21:37:26.346Z,14.78
2023-05-10T21:40:40.409Z,11.53
2023-05-10T21:43:52.607Z,16.08
2023-05-10T21:47:05.018Z,10.78
2023-05-10T21:50:18.829Z,12.73
2023-05-10T21:53:31.694Z,9.33
2023-05-10T21:56:44.722Z,16.28
2023-05-10T21:59:57.128Z,10.60
2023-05-10T22:03:09.476Z,12.25
2023-05-10T22:06:22.039Z,12.45
2023-05-10T22:09:34.548Z,15.85
2023-05-10T22:12:46.834Z,13.93
2023-05-10T22:15:59.098Z,12.25
2023-05-10T22:19:11.526Z,17.08
2023-05-10T22:22:23.596Z,11.25
2023-05-10T22:25:36.061Z,14.90
2023-05-10T22:28:48.506Z,15.83
2023-05-10T22:32:03.179Z,13.45
2023-05-10T22:35:16.703Z,11.33
2023-05-10T22:38:29.043Z,15.10
2023-05-10T22:41:42.038Z,13.98
2023-05-10T22:44:54.193Z,16.48
2023-05-10T22:48:09.662Z,22.33
2023-05-10T22:51:21.730Z,21.93
2023-05-10T22:54:36.189Z,16.58
2023-05-10T22:57:48.630Z,14.20
2023-05-10T23:01:01.318Z,12.63
2023-05-10T23:04:13.517Z,14.40
2023-05-10T23:07:25.759Z,14.68
2023-05-10T23:10:38.705Z,13.28
2023-05-10T23:13:51.129Z,14.18
2023-05-10T23:17:03.249Z,14.73
2023-05-10T23:20:19.105Z,12.45
2023-05-10T23:23:33.075Z,12.28
2023-05-10T23:26:46.702Z,12.90
2023-05-10T23:29:59.487Z,13.68
2023-05-10T23:33:14.236Z,15.30
2023-05-10T23:36:27.124Z,13.43
2023-05-10T23:39:39.266Z,11.45
2023-05-10T23:42:51.897Z,13.40
2023-05-10T23:46:05.522Z,17.58
2023-05-10T23:49:17.841Z,14.15
2023-05-10T23:52:30.166Z,10.33
2023-05-10T23:55:42.671Z,14.58
2023-05-10T23:58:55.008Z,12.60
